createdAt,value
2023-04-23T00:00:02.053Z,69.50
2023-04-23T00:02:35.290Z,69.50
2023-04-23T00:05:08.895Z,69.60
2023-04-23T00:07:39.588Z,69.50
2023-04-23T00:10:11.092Z,69.50
2023-04-23T00:12:41.696Z,69.50
2023-04-23T00:15:13.416Z,69.50
2023-04-23T00:17:43.700Z,69.50
2023-04-23T00:20:14.391Z,69.50
2023-04-23T00:22:44.870Z,69.60
2023-04-23T00:25:15.477Z,69.50
2023-04-23T00:27:45.618Z,69.60
2023-04-23T00:30:16.022Z,69.50
2023-04-23T00:32:46.550Z,69.60
2023-04-23T00:35:16.939Z,69.60
2023-04-23T00:37:47.298Z,70.30
2023-04-23T00:40:17.803Z,69.50
2023-04-23T00:42:48.910Z,69.40
2023-04-23T00:45:19.753Z,69.40
2023-04-23T00:47:50.565Z,69.30
2023-04-23T00:50:20.889Z,69.30
2023-04-23T00:52:51.171Z,69.00
2023-04-23T00:55:22.893Z,68.90
2023-04-23T00:57:53.824Z,68.90
2023-04-23T01:00:24.759Z,68.80
2023-04-23T01:02:56.418Z,68.90
2023-04-23T01:05:27.057Z,68.80
2023-04-23T01:07:58.021Z,68.80
2023-04-23T01:10:28.523Z,68.90
2023-04-23T01:12:58.884Z,68.80
2023-04-23T01:15:29.247Z,68.90
2023-04-23T01:18:00.252Z,68.70
2023-04-23T01:20:30.656Z,68.70
2023-04-23T01:23:00.944Z,68.70
2023-04-23T01:25:31.234Z,68.70
2023-04-23T01:28:01.732Z,68.60
2023-04-23T01:30:32.707Z,68.60
2023-04-23T01:33:03.607Z,68.70
2023-04-23T01:35:34.230Z,68.60
2023-04-23T01:38:06.379Z,68.60
2023-04-23T01:40:37.827Z,68.60
2023-04-23T01:43:09.082Z,68.60
2023-04-23T01:45:39.513Z,68.60
2023-04-23T01:48:09.819Z,68.60
2023-04-23T01:50:40.924Z,68.50
2023-04-23T01:53:11.219Z,68.50
2023-04-23T01:55:42.382Z,68.50
2023-04-23T01:58:12.581Z,68.50
2023-04-23T02:00:42.972Z,68.50
2023-04-23T02:03:13.406Z,68.50
2023-04-23T02:05:44.977Z,68.50
2023-04-23T02:08:15.797Z,68.60
2023-04-23T02:10:46.301Z,68.50
2023-04-23T02:13:16.682Z,68.60
2023-04-23T02:15:47.244Z,68.60
2023-04-23T02:18:17.578Z,68.60
2023-04-23T02:20:47.889Z,68.60
2023-04-23T02:23:18.237Z,68.70
2023-04-23T02:25:48.489Z,68.60
2023-04-23T02:28:18.756Z,68.70
2023-04-23T02:30:49.598Z,68.60
2023-04-23T02:33:21.283Z,68.60
2023-04-23T02:35:51.531Z,68.70
2023-04-23T02:38:29.659Z,68.60
2023-04-23T02:40:59.801Z,68.60
2023-04-23T02:43:29.960Z,68.70
2023-04-23T02:46:00.207Z,68.70
2023-04-23T02:48:31.426Z,68.70
2023-04-23T02:51:04.402Z,68.70
2023-04-23T02:53:34.976Z,69.10
2023-04-23T02:56:05.259Z,69.00
2023-04-23T02:58:35.529Z,69.10
2023-04-23T03:01:06.006Z,69.20
2023-04-23T03:03:37.115Z,69.10
2023-04-23T03:06:08.457Z,69.20
2023-04-23T03:08:38.649Z,69.10
2023-04-23T03:11:08.805Z,69.10
2023-04-23T03:13:39.131Z,69.10
2023-04-23T03:16:09.555Z,69.00
2023-04-23T03:18:39.791Z,69.00
2023-04-23T03:21:10.026Z,69.00
2023-04-23T03:23:40.259Z,69.30
2023-04-23T03:26:10.902Z,69.30
2023-04-23T03:28:41.209Z,69.20
2023-04-23T03:31:12.223Z,69.20
2023-04-23T03:33:42.712Z,69.30
2023-04-23T03:36:13.172Z,69.30
2023-04-23T03:38:43.454Z,69.30
2023-04-23T03:41:14.044Z,69.40
2023-04-23T03:43:44.492Z,69.30
2023-04-23T03:46:15.072Z,69.30
2023-04-23T03:48:45.483Z,69.30
2023-04-23T03:51:15.950Z,69.40
2023-04-23T03:53:47.245Z,69.40
2023-04-23T03:56:18.075Z,69.40
2023-04-23T03:58:48.434Z,69.50
2023-04-23T04:01:18.933Z,69.60
2023-04-23T04:03:49.759Z,69.60
2023-04-23T04:06:20.215Z,69.70
2023-04-23T04:08:50.476Z,69.70
2023-04-23T04:11:20.764Z,69.90
2023-04-23T04:13:51.130Z,69.90
2023-04-23T04:16:21.352Z,69.80
2023-04-23T04:18:51.968Z,69.80
2023-04-23T04:21:23.213Z,70.50
2023-04-23T04:23:53.437Z,69.80
2023-04-23T04:26:23.815Z,69.70
2023-04-23T04:28:54.963Z,69.80
2023-04-23T04:31:25.210Z,69.80
2023-04-23T04:33:55.373Z,69.80
2023-04-23T04:36:28.803Z,69.90
2023-04-23T04:39:02.364Z,69.80
2023-04-23T04:41:32.630Z,69.80
2023-04-23T04:44:02.896Z,69.80
2023-04-23T04:46:33.604Z,69.70
2023-04-23T04:49:03.990Z,69.70
2023-04-23T04:51:34.282Z,69.80
2023-04-23T04:54:04.431Z,69.90
2023-04-23T04:56:34.808Z,69.80
2023-04-23T04:59:05.838Z,69.90
2023-04-23T05:01:36.488Z,70.00
2023-04-23T05:04:07.084Z,70.00
2023-04-23T05:06:37.357Z,70.10
2023-04-23T05:09:07.534Z,70.10
2023-04-23T05:11:37.768Z,70.10
2023-04-23T05:14:08.208Z,70.20
2023-04-23T05:16:38.601Z,70.40
2023-04-23T05:19:09.953Z,70.40
2023-04-23T05:21:40.404Z,70.70
2023-04-23T05:24:10.654Z,70.70
2023-04-23T05:26:40.864Z,70.60
2023-04-23T05:29:11.159Z,70.70
2023-04-23T05:31:41.520Z,70.60
2023-04-23T05:34:11.758Z,70.80
2023-04-23T05:36:42.170Z,71.00
2023-04-23T05:39:12.386Z,71.10
2023-04-23T05:41:42.969Z,71.20
2023-04-23T05:44:13.161Z,71.20
2023-04-23T05:46:43.356Z,71.20
2023-04-23T05:49:13.585Z,71.10
2023-04-23T05:51:44.743Z,71.20
2023-04-23T05:54:16.272Z,71.10
2023-04-23T05:56:46.487Z,71.10
2023-04-23T05:59:16.712Z,71.10
2023-04-23T06:01:46.985Z,71.00
2023-04-23T06:04:18.377Z,71.00
2023-04-23T06:06:48.695Z,70.90
2023-04-23T06:09:18.939Z,70.80
2023-04-23T06:11:52.135Z,70.80
2023-04-23T06:14:22.597Z,70.60
2023-04-23T06:16:52.825Z,70.50
2023-04-23T06:19:23.348Z,70.50
2023-04-23T06:21:54.527Z,70.70
2023-04-23T06:24:24.927Z,70.60
2023-04-23T06:26:55.253Z,70.60
2023-04-23T06:29:25.658Z,70.60
2023-04-23T06:31:58.529Z,70.50
2023-04-23T06:34:28.871Z,70.60
2023-04-23T06:36:59.315Z,70.60
2023-04-23T06:39:29.596Z,70.60
2023-04-23T06:41:59.896Z,70.70
2023-04-23T06:44:33.679Z,70.60
2023-04-23T06:47:04.021Z,70.50
2023-04-23T06:49:34.343Z,70.40
2023-04-23T06:52:04.720Z,70.40
2023-04-23T06:54:34.952Z,70.40
2023-04-23T06:57:05.173Z,70.30
2023-04-23T06:59:35.466Z,70.30
2023-04-23T07:02:05.932Z,70.30
2023-04-23T07:04:36.262Z,70.30
2023-04-23T07:07:06.541Z,70.30
2023-04-23T07:09:36.715Z,70.30
2023-04-23T07:12:07.114Z,70.20
2023-04-23T07:14:37.407Z,70.20
2023-04-23T07:17:07.818Z,70.00
2023-04-23T07:19:38.139Z,69.90
2023-04-23T07:22:08.321Z,69.80
2023-04-23T07:24:38.561Z,69.80
2023-04-23T07:27:09.663Z,69.70
2023-04-23T07:29:39.954Z,69.70
2023-04-23T07:32:10.171Z,69.60
2023-04-23T07:34:41.203Z,69.60
2023-04-23T07:37:11.877Z,69.60
2023-04-23T07:39:43.980Z,69.60
2023-04-23T07:42:15.229Z,69.60
2023-04-23T07:44:45.435Z,69.60
2023-04-23T07:47:15.702Z,69.60
2023-04-23T07:49:46.030Z,69.60
2023-04-23T07:52:17.236Z,69.50
2023-04-23T07:54:48.062Z,69.50
2023-04-23T07:57:18.406Z,69.50
2023-04-23T07:59:48.814Z,69.50
2023-04-23T08:02:20.094Z,69.50
2023-04-23T08:04:50.530Z,70.30
2023-04-23T08:07:20.960Z,69.50
2023-04-23T08:09:51.251Z,69.50
2023-04-23T08:12:22.857Z,69.50
2023-04-23T08:14:53.184Z,69.50
2023-04-23T08:17:23.466Z,69.60
2023-04-23T08:19:53.770Z,69.50
2023-04-23T08:22:24.781Z,69.60
2023-04-23T08:24:55.426Z,69.50
2023-04-23T08:27:25.721Z,69.50
2023-04-23T08:29:55.924Z,69.50
2023-04-23T08:32:26.396Z,69.50
2023-04-23T08:34:57.014Z,69.50
2023-04-23T08:37:31.283Z,69.50
2023-04-23T08:40:02.411Z,69.50
2023-04-23T08:42:45.342Z,69.50
2023-04-23T08:45:16.051Z,69.50
2023-04-23T08:47:46.548Z,69.50
2023-04-23T08:50:21.904Z,69.50
2023-04-23T08:53:00.092Z,69.50
2023-04-23T08:55:30.636Z,69.50
2023-04-23T08:58:02.062Z,69.60
2023-04-23T09:00:33.005Z,69.60
2023-04-23T09:03:04.158Z,69.60
2023-04-23T09:05:34.895Z,69.60
2023-04-23T09:08:05.122Z,69.50
2023-04-23T09:10:38.519Z,69.60
2023-04-23T09:13:08.787Z,69.50
2023-04-23T09:15:41.648Z,70.30
2023-04-23T09:18:12.606Z,69.50
2023-04-23T09:20:43.434Z,69.50
2023-04-23T09:23:17.931Z,69.50
2023-04-23T09:25:48.190Z,69.50
2023-04-23T09:28:18.563Z,69.50
2023-04-23T09:30:51.065Z,69.50
2023-04-23T09:33:21.257Z,69.60
2023-04-23T09:35:52.043Z,69.50
2023-04-23T09:38:28.085Z,69.50
2023-04-23T09:40:59.480Z,69.50
2023-04-23T09:43:33.263Z,69.50
2023-04-23T09:46:03.605Z,69.50
2023-04-23T09:48:44.946Z,69.60
2023-04-23T09:51:17.987Z,69.50
2023-04-23T09:53:48.352Z,69.60
2023-04-23T09:56:18.573Z,69.60
2023-04-23T09:58:49.001Z,69.60
2023-04-23T10:01:19.314Z,69.60
2023-04-23T10:03:55.570Z,69.60
2023-04-23T10:06:44.498Z,69.60
2023-04-23T10:09:24.808Z,69.60
2023-04-23T10:12:05.198Z,69.60
2023-04-23T10:14:35.433Z,69.60
2023-04-23T10:17:06.889Z,69.60
2023-04-23T10:19:42.872Z,69.60
2023-04-23T10:24:53.620Z,69.60
2023-04-23T10:27:40.445Z,69.60
2023-04-23T10:30:19.188Z,69.70
2023-04-23T10:32:51.779Z,69.70
2023-04-23T10:35:22.149Z,69.60
2023-04-23T10:37:52.736Z,69.70
2023-04-23T10:40:28.653Z,69.60
2023-04-23T10:42:59.814Z,69.60
2023-04-23T10:45:34.645Z,69.60
2023-04-23T10:48:06.400Z,69.60
2023-04-23T10:50:47.708Z,69.60
2023-04-23T10:53:28.712Z,69.60
2023-04-23T10:56:09.589Z,69.60
2023-04-23T10:58:53.453Z,69.60
2023-04-23T11:01:28.109Z,69.60
2023-04-23T11:03:59.189Z,69.70
2023-04-23T11:06:50.676Z,69.70
2023-04-23T11:09:35.099Z,69.60
2023-04-23T11:12:08.514Z,69.60
2023-04-23T11:14:39.997Z,70.00
2023-04-23T11:17:10.330Z,69.70
2023-04-23T11:19:42.980Z,69.70
2023-04-23T11:22:20.348Z,69.80
2023-04-23T11:24:51.293Z,69.70
2023-04-23T11:27:22.793Z,69.80
2023-04-23T11:29:54.899Z,69.80
2023-04-23T11:32:25.861Z,69.80
2023-04-23T11:34:56.478Z,69.80
2023-04-23T11:37:28.723Z,69.70
2023-04-23T11:39:58.941Z,69.70
2023-04-23T11:42:30.195Z,69.80
2023-04-23T11:45:00.498Z,69.70
2023-04-23T11:47:30.727Z,69.80
2023-04-23T11:50:04.488Z,69.80
2023-04-23T11:52:35.140Z,69.70
2023-04-23T11:55:11.551Z,69.80
2023-04-23T11:57:46.849Z,69.80
2023-04-23T12:00:28.162Z,69.80
2023-04-23T12:03:00.704Z,69.80
2023-04-23T12:05:41.591Z,69.90
2023-04-23T12:08:14.510Z,69.90
2023-04-23T12:10:51.257Z,69.90
2023-04-23T12:13:27.909Z,69.90
2023-04-23T12:16:01.120Z,70.00
2023-04-23T12:18:32.640Z,70.00
2023-04-23T12:21:10.952Z,70.00
2023-04-23T12:23:43.461Z,70.00
2023-04-23T12:26:15.607Z,70.00
2023-04-23T12:28:57.337Z,70.00
2023-04-23T12:31:32.583Z,70.00
2023-04-23T12:34:11.269Z,70.10
2023-04-23T12:36:42.808Z,70.00
2023-04-23T12:39:36.437Z,70.00
2023-04-23T12:42:09.843Z,69.90
2023-04-23T12:44:42.981Z,70.00
2023-04-23T12:47:13.677Z,70.00
2023-04-23T12:49:45.434Z,70.00
2023-04-23T12:52:15.916Z,70.00
2023-04-23T12:54:47.028Z,70.00
2023-04-23T12:57:18.294Z,70.00
2023-04-23T12:59:50.047Z,70.00
2023-04-23T13:02:20.411Z,69.90
2023-04-23T13:04:50.711Z,69.90
2023-04-23T13:07:21.032Z,69.90
2023-04-23T13:09:51.373Z,70.00
2023-04-23T13:12:21.688Z,69.80
2023-04-23T13:14:52.341Z,69.90
2023-04-23T13:17:22.792Z,69.90
2023-04-23T13:19:53.109Z,70.20
2023-04-23T13:22:24.567Z,69.80
2023-04-23T13:24:54.871Z,69.80
2023-04-23T13:27:26.425Z,69.80
2023-04-23T13:29:57.078Z,69.80
2023-04-23T13:32:28.886Z,69.90
2023-04-23T13:35:02.318Z,69.90
2023-04-23T13:37:33.502Z,69.90
2023-04-23T13:40:04.503Z,69.90
2023-04-23T13:42:35.988Z,69.90
2023-04-23T13:45:08.020Z,69.90
2023-04-23T13:47:38.426Z,69.80
2023-04-23T13:50:09.425Z,69.80
2023-04-23T13:52:41.448Z,69.80
2023-04-23T13:55:12.135Z,69.80
2023-04-23T13:57:42.885Z,69.80
2023-04-23T14:00:14.451Z,69.80
2023-04-23T14:02:44.938Z,69.80
2023-04-23T14:05:15.714Z,69.80
2023-04-23T14:07:46.675Z,69.90
2023-04-23T14:10:17.521Z,69.80
2023-04-23T14:12:50.821Z,69.80
2023-04-23T14:15:21.189Z,69.80
2023-04-23T14:17:51.834Z,69.80
2023-04-23T14:20:22.205Z,69.80
2023-04-23T14:22:57.394Z,69.80
2023-04-23T14:25:42.692Z,69.80
2023-04-23T14:28:32.952Z,69.70
2023-04-23T14:31:04.304Z,69.70
2023-04-23T14:33:34.604Z,69.80
2023-04-23T14:36:05.150Z,69.80
2023-04-23T14:38:35.400Z,69.80
2023-04-23T14:41:05.582Z,69.80
2023-04-23T14:43:35.873Z,69.90
2023-04-23T14:46:06.063Z,69.80
2023-04-23T14:48:37.409Z,69.90
2023-04-23T14:51:07.769Z,69.80
2023-04-23T14:53:38.133Z,69.90
2023-04-23T14:56:08.594Z,69.90
2023-04-23T14:58:38.922Z,69.90
2023-04-23T15:01:09.240Z,70.00
2023-04-23T15:03:39.764Z,69.90
2023-04-23T15:06:10.631Z,69.90
2023-04-23T15:08:41.812Z,69.80
2023-04-23T15:11:14.973Z,69.80
2023-04-23T15:14:27.248Z,69.80
2023-04-23T15:16:57.560Z,69.70
2023-04-23T15:19:27.763Z,69.90
2023-04-23T15:21:57.912Z,69.80
2023-04-23T15:24:28.252Z,69.80
2023-04-23T15:27:00.908Z,69.80
2023-04-23T15:29:31.853Z,69.80
2023-04-23T15:32:02.038Z,69.80
2023-04-23T15:34:32.565Z,69.70
2023-04-23T15:37:02.697Z,69.70
2023-04-23T15:39:32.916Z,69.70
2023-04-23T15:42:03.527Z,69.70
2023-04-23T15:44:33.789Z,69.60
2023-04-23T15:47:05.118Z,69.60
2023-04-23T15:49:35.399Z,69.60
2023-04-23T15:52:05.641Z,69.60
2023-04-23T15:54:35.909Z,69.70
2023-04-23T15:57:06.207Z,69.60
2023-04-23T15:59:36.403Z,69.60
2023-04-23T16:02:07.311Z,69.60
2023-04-23T16:04:37.829Z,69.60
2023-04-23T16:07:08.331Z,69.60
2023-04-23T16:09:38.769Z,69.60
2023-04-23T16:12:10.649Z,69.60
2023-04-23T16:14:41.833Z,69.50
2023-04-23T16:17:12.373Z,69.60
2023-04-23T16:19:43.033Z,69.50
2023-04-23T16:22:13.439Z,69.50
2023-04-23T16:24:43.713Z,69.50
2023-04-23T16:27:14.773Z,69.60
2023-04-23T16:29:44.920Z,69.50
2023-04-23T16:32:15.168Z,69.60
2023-04-23T16:34:45.410Z,69.50
2023-04-23T16:37:17.583Z,69.50
2023-04-23T16:39:48.202Z,69.50
2023-04-23T16:42:18.361Z,69.50
2023-04-23T16:44:48.624Z,69.60
2023-04-23T16:47:18.940Z,69.50
2023-04-23T16:49:49.220Z,69.50
2023-04-23T16:52:19.483Z,69.50
2023-04-23T16:54:50.985Z,69.50
2023-04-23T16:57:22.409Z,69.50
2023-04-23T16:59:54.408Z,69.50
2023-04-23T17:02:24.997Z,69.50
2023-04-23T17:04:55.549Z,69.50
2023-04-23T17:07:26.384Z,69.50
2023-04-23T17:09:56.658Z,69.50
2023-04-23T17:12:27.165Z,69.50
2023-04-23T17:14:57.518Z,69.50
2023-04-23T17:17:27.878Z,69.50
2023-04-23T17:19:58.114Z,69.50
2023-04-23T17:22:28.489Z,69.40
2023-04-23T17:24:58.852Z,70.20
2023-04-23T17:27:29.117Z,69.40
2023-04-23T17:29:59.282Z,69.40
2023-04-23T17:32:29.601Z,69.40
2023-04-23T17:35:09.321Z,69.40
2023-04-23T17:37:40.973Z,69.40
2023-04-23T17:40:12.169Z,69.40
2023-04-23T17:42:42.491Z,69.40
2023-04-23T17:45:13.696Z,69.40
2023-04-23T17:47:44.014Z,69.40
2023-04-23T17:50:14.701Z,69.40
2023-04-23T17:52:46.711Z,69.40
2023-04-23T17:55:17.069Z,69.40
2023-04-23T17:57:47.534Z,69.40
2023-04-23T18:00:19.516Z,69.30
2023-04-23T18:02:49.972Z,69.30
2023-04-23T18:05:21.025Z,69.40
2023-04-23T18:07:51.268Z,69.40
2023-04-23T18:10:21.631Z,69.30
2023-04-23T18:12:52.137Z,69.30
2023-04-23T18:15:22.705Z,69.30
2023-04-23T18:17:55.552Z,69.40
2023-04-23T18:20:26.332Z,69.30
2023-04-23T18:22:56.977Z,69.30
2023-04-23T18:25:28.651Z,69.30
2023-04-23T18:27:58.783Z,69.30
2023-04-23T18:30:29.215Z,69.30
2023-04-23T18:33:27.966Z,69.30
2023-04-23T18:36:07.363Z,69.20
2023-04-23T18:38:46.924Z,69.30
2023-04-23T18:41:17.456Z,69.30
2023-04-23T18:43:47.714Z,69.30
2023-04-23T18:46:18.604Z,69.20
2023-04-23T18:48:59.504Z,69.20
2023-04-23T18:51:53.502Z,69.20
2023-04-23T18:54:25.396Z,69.10
2023-04-23T18:56:55.641Z,69.30
2023-04-23T18:59:26.482Z,69.30
2023-04-23T19:01:58.589Z,69.20
2023-04-23T19:04:29.644Z,69.20
2023-04-23T19:07:00.384Z,69.20
2023-04-23T19:09:30.784Z,69.20
2023-04-23T19:12:01.024Z,69.20
2023-04-23T19:14:31.324Z,69.20
2023-04-23T19:17:01.710Z,69.20
2023-04-23T19:19:33.673Z,69.20
2023-04-23T19:22:05.354Z,69.30
2023-04-23T19:24:36.169Z,69.30
2023-04-23T19:27:08.443Z,69.30
2023-04-23T19:29:38.588Z,69.30
2023-04-23T19:32:08.949Z,69.30
2023-04-23T19:34:39.187Z,69.30
2023-04-23T19:37:09.459Z,69.30
2023-04-23T19:39:39.908Z,69.30
2023-04-23T19:42:10.349Z,69.30
2023-04-23T19:44:40.639Z,69.30
2023-04-23T19:47:10.876Z,69.20
2023-04-23T19:49:41.236Z,69.30
2023-04-23T19:52:20.936Z,70.00
2023-04-23T19:54:51.614Z,69.20
2023-04-23T19:57:23.869Z,69.30
2023-04-23T19:59:54.346Z,69.30
2023-04-23T20:02:25.106Z,69.30
2023-04-23T20:04:55.419Z,69.30
2023-04-23T20:07:25.632Z,69.30
2023-04-23T20:09:55.757Z,69.30
2023-04-23T20:12:26.559Z,69.30
2023-04-23T20:14:57.430Z,69.30
2023-04-23T20:17:31.703Z,69.30
2023-04-23T20:20:03.329Z,69.30
2023-04-23T20:22:33.689Z,69.30
2023-04-23T20:25:07.064Z,69.30
2023-04-23T20:27:37.762Z,69.30
2023-04-23T20:30:10.151Z,69.30
2023-04-23T20:32:40.370Z,69.30
2023-04-23T20:35:11.230Z,69.30
2023-04-23T20:37:42.415Z,69.40
2023-04-23T20:40:13.427Z,69.40
2023-04-23T20:42:44.084Z,69.30
2023-04-23T20:45:15.960Z,69.30
2023-04-23T20:47:48.486Z,69.30
2023-04-23T20:50:19.092Z,69.30
2023-04-23T20:52:49.299Z,69.40
2023-04-23T20:55:19.609Z,69.30
2023-04-23T20:57:49.881Z,69.30
2023-04-23T21:00:21.954Z,69.30
2023-04-23T21:02:52.330Z,69.40
2023-04-23T21:05:22.699Z,69.30
2023-04-23T21:07:52.895Z,69.40
2023-04-23T21:10:23.560Z,69.40
2023-04-23T21:12:54.066Z,69.40
2023-04-23T21:15:24.406Z,69.40
2023-04-23T21:17:54.785Z,69.40
2023-04-23T21:20:25.176Z,70.10
2023-04-23T21:22:55.623Z,69.30
2023-04-23T21:25:25.970Z,69.40
2023-04-23T21:28:00.563Z,69.40
2023-04-23T21:30:36.806Z,69.40
2023-04-23T21:33:07.048Z,69.40
2023-04-23T21:35:37.351Z,69.40
2023-04-23T21:38:08.249Z,69.40
2023-04-23T21:40:42.717Z,69.60
2023-04-23T21:43:13.625Z,69.60
2023-04-23T21:45:44.144Z,69.70
2023-04-23T21:48:14.983Z,69.80
2023-04-23T21:50:45.570Z,69.90
2023-04-23T21:53:16.191Z,70.00
2023-04-23T21:55:46.454Z,70.10
2023-04-23T21:58:17.951Z,70.20
2023-04-23T22:00:49.562Z,70.20
2023-04-23T22:03:30.775Z,70.30
2023-04-23T22:06:08.998Z,70.30
2023-04-23T22:08:39.814Z,70.30
2023-04-23T22:11:13.147Z,70.50
2023-04-23T22:13:43.616Z,71.20
2023-04-23T22:16:24.923Z,70.50
2023-04-23T22:18:59.588Z,70.50
2023-04-23T22:21:29.988Z,70.60
2023-04-23T22:24:00.331Z,70.60
2023-04-23T22:26:30.678Z,70.70
2023-04-23T22:29:00.953Z,70.70
2023-04-23T22:31:31.228Z,70.70
2023-04-23T22:34:01.535Z,70.80
2023-04-23T22:36:33.432Z,70.80
2023-04-23T22:39:04.534Z,70.60
2023-04-23T22:41:34.798Z,70.50
2023-04-23T22:44:04.943Z,70.80
2023-04-23T22:46:35.269Z,70.70
2023-04-23T22:49:06.275Z,70.60
2023-04-23T22:51:37.845Z,70.60
2023-04-23T22:54:08.239Z,70.70
2023-04-23T22:56:39.296Z,70.60
2023-04-23T22:59:09.725Z,70.60
2023-04-23T23:01:39.965Z,70.60
2023-04-23T23:04:10.366Z,70.50
2023-04-23T23:06:40.961Z,70.50
2023-04-23T23:09:12.003Z,70.40
2023-04-23T23:11:42.452Z,70.40
2023-04-23T23:14:13.100Z,70.40
2023-04-23T23:16:44.054Z,70.40
2023-04-23T23:19:14.886Z,70.40
2023-04-23T23:21:45.181Z,70.40
2023-04-23T23:24:16.026Z,70.30
2023-04-23T23:26:46.496Z,70.40
2023-04-23T23:29:16.962Z,70.30
2023-04-23T23:31:47.432Z,70.50
2023-04-23T23:34:17.894Z,70.50
2023-04-23T23:36:50.928Z,70.60
2023-04-23T23:39:22.170Z,70.60
2023-04-23T23:41:52.588Z,70.80
2023-04-23T23:44:25.450Z,70.80
2023-04-23T23:46:55.670Z,70.80
2023-04-23T23:49:25.873Z,71.00
2023-04-23T23:51:56.162Z,71.20
2023-04-23T23:54:26.352Z,71.20
2023-04-23T23:56:58.637Z,71.50
2023-04-23T23:59:29.144Z,71.60
